EGXZ - Topcliffe Royal Air Force Base
Distance from station: E 5mi, 14km
Updated: 02/17/2018 5:50pm
Overcast
Overcast
 Wind from SE
Wind: SE 6 mph , 9 km/h
Temperature: 32°F , 0°C
Wind Chill: 26°F , -3°C
Dew Point: 32°F , 0°C
Humidity: 100%
Barometer: 30.15 inHg , 1021 hPa
Clouds: Overcast
Visibility: 1 mile , 2 km
Cloud details: Overcast 5000 ft
2018/02/18 01:50 EGXZ 180150Z AUTO 13005KT 2100 OVC050/// 00/00 Q1021